createdAt,value
2023-05-20T00:03:45.211Z,88.33
2023-05-20T00:08:36.869Z,88.63
2023-05-20T00:13:28.604Z,88.82
2023-05-20T00:18:20.244Z,89.85
2023-05-20T00:23:11.943Z,90.63
2023-05-20T00:28:03.709Z,90.68
2023-05-20T00:32:55.531Z,90.73
2023-05-20T00:37:47.193Z,90.62
2023-05-20T00:42:38.864Z,90.42
2023-05-20T00:47:33.801Z,90.36
2023-05-20T00:52:25.830Z,89.99
2023-05-20T00:57:19.217Z,90.31
2023-05-20T01:02:11.483Z,89.87
2023-05-20T01:07:06.100Z,89.70
2023-05-20T01:12:07.102Z,90.00
2023-05-20T01:17:02.244Z,91.04
2023-05-20T01:21:55.553Z,91.65
2023-05-20T01:26:48.497Z,93.33
2023-05-20T01:31:40.479Z,93.51
2023-05-20T01:36:33.645Z,94.63
2023-05-20T01:41:27.434Z,94.61
2023-05-20T01:46:19.161Z,95.15
2023-05-20T01:51:11.172Z,96.20
2023-05-20T01:56:03.097Z,96.84
2023-05-20T02:00:54.828Z,95.89
2023-05-20T02:05:46.525Z,95.89
2023-05-20T02:10:38.208Z,95.22
2023-05-20T02:15:29.881Z,95.08
2023-05-20T02:20:21.600Z,96.23
2023-05-20T02:25:13.293Z,95.32
2023-05-20T02:30:05.645Z,95.30
2023-05-20T02:34:57.298Z,94.82
2023-05-20T02:39:48.908Z,95.14
2023-05-20T02:44:41.356Z,96.35
2023-05-20T02:49:33.019Z,96.59
2023-05-20T02:54:24.736Z,97.24
2023-05-20T02:59:16.455Z,97.39
2023-05-20T03:04:08.748Z,98.21
2023-05-20T03:09:00.424Z,98.81
2023-05-20T03:13:52.148Z,99.14
2023-05-20T03:18:43.936Z,99.33
2023-05-20T03:23:35.963Z,99.95
2023-05-20T03:28:27.639Z,99.75
2023-05-20T03:33:19.337Z,99.98
2023-05-20T03:38:11.024Z,99.83
2023-05-20T03:43:02.630Z,99.48
2023-05-20T03:47:54.379Z,99.40
2023-05-20T03:52:46.057Z,99.09
2023-05-20T03:57:37.945Z,98.97
2023-05-20T04:02:30.165Z,98.81
2023-05-20T04:07:22.001Z,98.81
2023-05-20T04:12:14.047Z,98.04
2023-05-20T04:17:06.762Z,98.14
2023-05-20T04:21:58.452Z,98.40
2023-05-20T04:26:50.197Z,98.82
2023-05-20T04:31:41.809Z,99.37
2023-05-20T04:36:34.790Z,99.88
2023-05-20T04:41:27.431Z,100.00
2023-05-20T04:46:20.588Z,99.12
2023-05-20T04:51:12.309Z,97.72
2023-05-20T04:56:04.145Z,95.96
2023-05-20T05:00:56.598Z,94.82
2023-05-20T05:05:48.611Z,92.81
2023-05-20T05:10:40.418Z,90.06
2023-05-20T05:15:32.343Z,87.12
2023-05-20T05:20:24.209Z,85.62
2023-05-20T05:25:16.511Z,83.81
2023-05-20T05:30:08.609Z,80.23
2023-05-20T05:35:00.290Z,78.39
2023-05-20T05:39:52.459Z,77.10
2023-05-20T05:44:44.705Z,72.43
2023-05-20T05:49:36.343Z,72.12
2023-05-20T05:54:27.998Z,67.80
2023-05-20T05:59:20.194Z,66.30
2023-05-20T06:04:11.907Z,66.22
2023-05-20T06:09:03.769Z,62.94
2023-05-20T06:13:55.710Z,61.60
2023-05-20T06:18:50.129Z,60.73
2023-05-20T06:23:41.810Z,58.21
2023-05-20T06:28:33.984Z,57.20
2023-05-20T06:33:27.236Z,56.26
2023-05-20T06:38:20.177Z,53.88
2023-05-20T06:43:11.849Z,53.60
2023-05-20T06:48:03.618Z,51.14
2023-05-20T06:52:55.449Z,52.04
2023-05-20T06:57:47.097Z,51.08
2023-05-20T07:02:38.870Z,49.81
2023-05-20T07:07:30.606Z,49.41
2023-05-20T07:12:22.195Z,47.84
2023-05-20T07:17:13.805Z,48.29
2023-05-20T07:22:05.836Z,45.94
2023-05-20T07:26:57.599Z,42.87
2023-05-20T07:31:49.304Z,43.31
2023-05-20T07:36:40.962Z,42.41
2023-05-20T07:41:32.769Z,40.85
2023-05-20T07:46:24.529Z,40.89
2023-05-20T07:51:16.344Z,39.89
2023-05-20T07:56:08.353Z,40.19
2023-05-20T08:01:00.001Z,40.54
2023-05-20T08:05:51.890Z,40.94
2023-05-20T08:10:43.505Z,39.58
2023-05-20T08:15:36.648Z,39.57
2023-05-20T08:20:29.697Z,38.69
2023-05-20T08:25:21.432Z,39.19
2023-05-20T08:30:13.734Z,37.87
2023-05-20T08:35:07.650Z,38.90
2023-05-20T08:39:59.293Z,38.06
2023-05-20T08:44:53.942Z,38.04
2023-05-20T08:49:46.173Z,37.75
2023-05-20T08:54:46.229Z,36.44
2023-05-20T08:59:37.942Z,37.77
2023-05-20T09:04:29.697Z,37.57
2023-05-20T09:09:21.417Z,36.55
2023-05-20T09:14:13.051Z,36.10
2023-05-20T09:19:07.485Z,36.26
2023-05-20T09:24:02.413Z,36.14
2023-05-20T09:28:56.150Z,35.82
2023-05-20T09:33:49.575Z,35.13
2023-05-20T09:38:41.715Z,36.68
2023-05-20T09:43:33.653Z,35.60
2023-05-20T09:48:26.026Z,34.94
2023-05-20T09:53:18.576Z,35.82
2023-05-20T09:58:14.792Z,35.26
2023-05-20T10:03:08.327Z,34.65
2023-05-20T10:08:29.642Z,34.42
2023-05-20T10:13:27.075Z,34.20
2023-05-20T10:18:30.105Z,35.03
2023-05-20T10:23:29.009Z,34.34
2023-05-20T10:28:33.151Z,33.16
2023-05-20T10:33:27.904Z,33.21
2023-05-20T10:38:20.851Z,32.07
2023-05-20T10:43:18.817Z,30.00
2023-05-20T10:48:30.348Z,30.19
2023-05-20T10:58:17.768Z,29.44
2023-05-20T11:03:10.153Z,30.14
2023-05-20T11:08:16.981Z,30.00
2023-05-20T11:13:18.246Z,29.84
2023-05-20T11:18:11.640Z,31.25
2023-05-20T11:23:03.650Z,29.84
2023-05-20T11:27:55.295Z,31.25
2023-05-20T11:32:59.528Z,30.03
2023-05-20T11:38:00.928Z,30.45
2023-05-20T11:43:00.260Z,28.94
2023-05-20T11:48:05.458Z,28.50
2023-05-20T11:52:58.884Z,29.72
2023-05-20T11:57:52.085Z,30.87
2023-05-20T12:02:44.730Z,32.20
2023-05-20T12:07:36.843Z,31.44
2023-05-20T12:12:28.484Z,30.26
2023-05-20T12:17:20.137Z,31.80
2023-05-20T12:22:11.788Z,31.77
2023-05-20T12:27:06.525Z,32.58
2023-05-20T12:31:58.246Z,32.24
2023-05-20T12:36:50.037Z,32.22
2023-05-20T12:41:42.448Z,32.60
2023-05-20T12:46:34.142Z,31.42
2023-05-20T12:51:26.104Z,32.40
2023-05-20T12:56:18.808Z,32.95
2023-05-20T13:01:10.618Z,33.33
2023-05-20T13:06:02.918Z,33.57
2023-05-20T13:10:54.539Z,34.85
2023-05-20T13:15:46.974Z,34.40
2023-05-20T13:20:38.997Z,36.25
2023-05-20T13:25:31.929Z,36.51
2023-05-20T13:30:23.509Z,35.24
2023-05-20T13:35:16.984Z,36.56
2023-05-20T13:40:09.472Z,37.72
2023-05-20T13:45:01.218Z,37.53
2023-05-20T13:49:53.075Z,37.91
2023-05-20T13:54:47.398Z,38.26
2023-05-20T13:59:39.867Z,38.30
2023-05-20T14:04:31.574Z,38.01
2023-05-20T14:09:23.277Z,37.48
2023-05-20T14:14:14.879Z,37.60
2023-05-20T14:19:08.927Z,37.33
2023-05-20T14:24:01.432Z,36.19
2023-05-20T14:28:53.145Z,38.75
2023-05-20T14:33:44.806Z,38.55
2023-05-20T14:38:37.216Z,38.32
2023-05-20T14:43:28.888Z,39.59
2023-05-20T14:48:20.746Z,40.03
2023-05-20T14:53:12.353Z,40.17
2023-05-20T14:58:04.194Z,40.25
2023-05-20T15:02:56.062Z,39.89
2023-05-20T15:07:47.782Z,40.55
2023-05-20T15:12:39.684Z,40.58
2023-05-20T15:17:31.507Z,40.75
2023-05-20T15:22:23.193Z,40.30
2023-05-20T15:27:14.977Z,39.92
2023-05-20T15:32:06.823Z,40.77
2023-05-20T15:36:58.464Z,41.64
2023-05-20T15:41:52.164Z,40.24
2023-05-20T15:46:44.872Z,40.78
2023-05-20T15:51:36.538Z,40.23
2023-05-20T15:56:29.531Z,40.60
2023-05-20T16:01:22.850Z,40.06
2023-05-20T16:06:14.656Z,40.45
2023-05-20T16:11:07.586Z,41.19
2023-05-20T16:16:00.031Z,41.23
2023-05-20T16:20:51.916Z,41.01
2023-05-20T16:25:43.689Z,41.75
2023-05-20T16:30:35.771Z,42.10
2023-05-20T16:35:27.972Z,41.79
2023-05-20T16:40:19.674Z,42.86
2023-05-20T16:45:12.502Z,42.46
2023-05-20T16:50:04.711Z,42.91
2023-05-20T16:54:58.665Z,42.49
2023-05-20T16:59:50.543Z,42.23
2023-05-20T17:04:43.396Z,42.28
2023-05-20T17:09:35.392Z,41.88
2023-05-20T17:14:27.063Z,41.92
2023-05-20T17:19:18.818Z,42.22
2023-05-20T17:24:10.603Z,42.10
2023-05-20T17:29:02.358Z,42.59
2023-05-20T17:33:54.095Z,42.74
2023-05-20T17:38:46.011Z,43.28
2023-05-20T17:43:37.645Z,42.99
2023-05-20T17:48:31.318Z,43.34
2023-05-20T17:53:22.990Z,43.50
2023-05-20T17:58:14.669Z,43.05
2023-05-20T18:03:06.557Z,42.78
2023-05-20T18:07:58.316Z,42.25
2023-05-20T18:12:50.201Z,42.25
2023-05-20T18:17:41.950Z,42.14
2023-05-20T18:22:33.684Z,42.14
2023-05-20T18:27:25.633Z,42.36
2023-05-20T18:32:17.556Z,41.72
2023-05-20T18:37:09.176Z,42.09
2023-05-20T18:42:01.022Z,41.89
2023-05-20T18:46:52.719Z,41.84
2023-05-20T18:51:44.379Z,41.96
2023-05-20T18:56:36.361Z,42.24
2023-05-20T19:01:29.421Z,42.66
2023-05-20T19:06:21.948Z,43.82
2023-05-20T19:11:13.684Z,44.31
2023-05-20T19:16:05.612Z,44.59
2023-05-20T19:20:57.274Z,45.35
2023-05-20T19:25:48.954Z,45.60
2023-05-20T19:30:40.749Z,46.33
2023-05-20T19:35:33.519Z,46.65
2023-05-20T19:40:25.619Z,47.13
2023-05-20T19:45:17.456Z,47.15
2023-05-20T19:50:10.475Z,47.81
2023-05-20T19:55:02.752Z,47.72
2023-05-20T19:59:54.396Z,47.96
2023-05-20T20:04:47.205Z,48.67
2023-05-20T20:09:38.775Z,48.90
2023-05-20T20:14:30.916Z,49.49
2023-05-20T20:19:23.064Z,49.69
2023-05-20T20:24:16.019Z,49.65
2023-05-20T20:29:08.170Z,50.32
2023-05-20T20:33:59.919Z,50.51
2023-05-20T20:38:51.523Z,50.37
2023-05-20T20:43:47.458Z,50.46
2023-05-20T20:48:39.065Z,50.82
2023-05-20T20:53:30.712Z,50.88
2023-05-20T20:58:22.778Z,50.70
2023-05-20T21:03:14.439Z,51.20
2023-05-20T21:08:08.450Z,51.31
2023-05-20T21:13:00.458Z,51.30
2023-05-20T21:17:52.589Z,51.71
2023-05-20T21:22:44.331Z,51.69
2023-05-20T21:27:36.096Z,51.89
2023-05-20T21:32:27.851Z,52.18
2023-05-20T21:37:19.525Z,52.84
2023-05-20T21:42:11.263Z,52.94
2023-05-20T21:47:02.962Z,53.54
2023-05-20T21:51:54.669Z,53.32
2023-05-20T21:56:46.237Z,53.82
2023-05-20T22:01:37.891Z,54.22
2023-05-20T22:06:29.522Z,54.38
2023-05-20T22:11:21.669Z,54.66
2023-05-20T22:16:14.327Z,55.04
2023-05-20T22:21:06.930Z,55.62
2023-05-20T22:25:58.589Z,55.93
2023-05-20T22:30:50.259Z,56.19
2023-05-20T22:35:41.973Z,56.78
2023-05-20T22:40:33.781Z,56.79
2023-05-20T22:45:25.466Z,56.97
2023-05-20T22:50:18.221Z,57.33
2023-05-20T22:55:11.753Z,57.27
2023-05-20T23:00:04.997Z,57.78
2023-05-20T23:04:56.672Z,58.70
2023-05-20T23:09:48.715Z,58.89
2023-05-20T23:14:40.556Z,58.61
2023-05-20T23:19:32.232Z,58.58
2023-05-20T23:24:23.990Z,58.52
2023-05-20T23:29:15.670Z,58.80
2023-05-20T23:34:07.533Z,59.05
2023-05-20T23:38:59.268Z,59.38
2023-05-20T23:43:51.158Z,59.46
2023-05-20T23:48:45.005Z,59.95
2023-05-20T23:53:36.749Z,60.85
2023-05-20T23:58:28.363Z,61.54
